Time;durP1;ratioP1;P1;durP2;ratioP2;P2;SDS_P1;SDS_P2;PMS_P1;PMS_P2;Temp;Humidity;BMP_temperature;BMP_pressure;BME280_temperature;BME280_humidity;BME280_pressure;Samples;Min_cycle;Max_cycle;Signal;HPM_P1;HPM_P2
2022/07/29 00:02:27;;;;;;;0.22;0.20;;;23.40;49.20;;;;;;6240875;28;20041;-68
2022/07/29 00:05:28;;;;;;;0.30;0.30;;;23.40;49.20;;;;;;6240972;28;20408;-68
2022/07/29 00:08:29;;;;;;;0.43;0.22;;;23.40;49.20;;;;;;6241021;28;20034;-68
2022/07/29 00:11:29;;;;;;;0.65;0.30;;;23.40;49.30;;;;;;6221170;28;20431;-67
2022/07/29 00:14:30;;;;;;;0.28;0.20;;;23.40;49.30;;;;;;6218700;28;20040;-68
2022/07/29 00:17:31;;;;;;;0.35;0.28;;;23.30;49.20;;;;;;6228490;28;20038;-68
2022/07/29 00:20:31;;;;;;;0.32;0.30;;;23.30;49.40;;;;;;6226273;28;20387;-66
2022/07/29 00:23:32;;;;;;;0.25;0.20;;;23.30;49.40;;;;;;6240128;28;20124;-68
2022/07/29 00:26:33;;;;;;;0.38;0.30;;;23.30;49.50;;;;;;6221373;28;20045;-68
2022/07/29 00:29:33;;;;;;;1.25;0.65;;;23.30;49.60;;;;;;6216908;28;20062;-67
2022/07/29 00:32:34;;;;;;;1.30;0.38;;;23.30;49.60;;;;;;6239786;28;20025;-67
2022/07/29 00:35:44;;;;;;;0.77;0.40;;;23.30;49.60;;;;;;6232947;28;20120;-68
2022/07/29 00:38:45;;;;;;;0.30;0.30;;;23.30;49.70;;;;;;6240064;28;20374;-68
2022/07/29 00:41:46;;;;;;;0.50;0.40;;;23.30;49.70;;;;;;6223276;28;20030;-67
2022/07/29 00:44:47;;;;;;;0.35;0.30;;;23.30;49.70;;;;;;6216301;28;20037;-68
2022/07/29 00:47:48;;;;;;;0.52;0.35;;;23.30;49.80;;;;;;6241042;28;20041;-68
2022/07/29 00:50:49;;;;;;;0.70;0.30;;;23.30;49.90;;;;;;6230391;28;20254;-68
2022/07/29 00:53:50;;;;;;;0.30;0.30;;;23.30;49.90;;;;;;6219830;28;20380;-68
2022/07/29 00:56:51;;;;;;;0.73;0.40;;;23.30;50.00;;;;;;6222548;28;20191;-68
2022/07/29 00:59:52;;;;;;;0.35;0.30;;;23.30;49.90;;;;;;6238115;28;20517;-68
2022/07/29 01:02:52;;;;;;;0.25;0.22;;;23.30;50.00;;;;;;6214628;28;20518;-68
2022/07/29 01:05:54;;;;;;;0.30;0.30;;;23.30;50.10;;;;;;6222555;28;20530;-67
2022/07/29 01:08:55;;;;;;;0.22;0.22;;;23.30;50.10;;;;;;6239908;28;20483;-68
2022/07/29 01:11:56;;;;;;;0.68;0.30;;;23.30;50.20;;;;;;6225587;28;20057;-68
2022/07/29 01:14:58;;;;;;;0.73;0.30;;;23.20;50.10;;;;;;6214167;28;20095;-68
2022/07/29 01:18:10;;;;;;;0.77;0.28;;;23.30;50.30;;;;;;6221581;28;20270;-67
2022/07/29 01:21:32;;;;;;;0.50;0.40;;;23.20;50.20;;;;;;6222744;28;20037;-68
2022/07/29 01:24:45;;;;;;;0.77;0.30;;;23.20;50.30;;;;;;6238992;28;20141;-68
2022/07/29 01:27:54;;;;;;;1.67;0.50;;;23.20;50.30;;;;;;6220229;28;20032;-68
2022/07/29 01:30:56;;;;;;;0.82;0.43;;;23.20;50.40;;;;;;6215693;28;20069;-67
2022/07/29 01:34:02;;;;;;;0.20;0.20;;;23.20;50.40;;;;;;6238656;28;20057;-68
2022/07/29 01:37:28;;;;;;;0.30;0.30;;;23.20;50.40;;;;;;6227423;28;20036;-68
2022/07/29 01:40:44;;;;;;;0.30;0.30;;;23.20;50.50;;;;;;6215407;28;20034;-67
2022/07/29 01:43:59;;;;;;;0.35;0.35;;;23.20;50.50;;;;;;6236365;28;20150;-68
2022/07/29 01:47:05;;;;;;;0.30;0.30;;;23.20;50.60;;;;;;6232877;28;20558;-67
2022/07/29 01:50:11;;;;;;;0.50;0.40;;;23.20;50.70;;;;;;6219229;28;20046;-68
2022/07/29 01:53:14;;;;;;;0.28;0.25;;;23.20;50.70;;;;;;6238420;28;20082;-68
2022/07/29 01:56:18;;;;;;;0.38;0.30;;;23.20;50.70;;;;;;6225412;28;20037;-67
2022/07/29 01:59:20;;;;;;;0.70;0.50;;;23.20;50.70;;;;;;6243143;28;20399;-68
2022/07/29 02:02:22;;;;;;;0.43;0.30;;;23.20;50.70;;;;;;6232562;28;20092;-68
2022/07/29 02:05:24;;;;;;;0.43;0.32;;;23.20;50.70;;;;;;6219422;28;20022;-68
2022/07/29 02:08:26;;;;;;;0.50;0.38;;;23.20;50.70;;;;;;6238183;28;20033;-68
2022/07/29 02:11:28;;;;;;;0.98;0.40;;;23.20;50.80;;;;;;6241072;28;20041;-67
2022/07/29 02:14:33;;;;;;;0.70;0.30;;;23.20;50.80;;;;;;6217417;28;20040;-67
2022/07/29 02:17:45;;;;;;;0.20;0.20;;;23.20;50.80;;;;;;6219128;28;20038;-67
2022/07/29 02:20:50;;;;;;;0.20;0.20;;;23.20;50.90;;;;;;6217762;28;20022;-68
2022/07/29 02:23:52;;;;;;;0.60;0.30;;;23.20;50.90;;;;;;6239738;28;20068;-67
2022/07/29 02:26:56;;;;;;;0.40;0.30;;;23.20;50.90;;;;;;6239464;28;20029;-67
2022/07/29 02:29:58;;;;;;;0.38;0.20;;;23.20;51.00;;;;;;6215482;28;20065;-67
2022/07/29 02:32:59;;;;;;;0.20;0.20;;;23.20;51.00;;;;;;6221950;28;20034;-67
2022/07/29 02:36:02;;;;;;;0.22;0.22;;;23.20;51.00;;;;;;6217218;28;20128;-68
2022/07/29 02:39:04;;;;;;;0.22;0.20;;;23.20;51.10;;;;;;6217819;28;20034;-68
2022/07/29 02:42:09;;;;;;;0.20;0.20;;;23.20;51.10;;;;;;6222029;28;20487;-68
2022/07/29 02:45:10;;;;;;;0.38;0.35;;;23.20;51.20;;;;;;6242485;28;20511;-67
2022/07/29 02:48:16;;;;;;;0.47;0.20;;;23.20;51.10;;;;;;6230620;28;20037;-66
2022/07/29 02:51:27;;;;;;;0.60;0.30;;;23.20;51.10;;;;;;6217859;28;20033;-68
2022/07/29 02:54:37;;;;;;;0.43;0.30;;;23.20;51.10;;;;;;6239368;28;20447;-67
2022/07/29 02:57:59;;;;;;;0.40;0.40;;;23.20;51.20;;;;;;6236321;28;20506;-68
2022/07/29 03:01:14;;;;;;;0.30;0.30;;;23.10;51.20;;;;;;6218252;28;20037;-68
2022/07/29 03:04:17;;;;;;;0.20;0.20;;;23.20;51.20;;;;;;6217176;28;20030;-68
2022/07/29 03:07:19;;;;;;;0.55;0.40;;;23.20;51.30;;;;;;6219389;28;20040;-68
2022/07/29 03:10:20;;;;;;;0.50;0.40;;;23.20;51.30;;;;;;6242093;28;20507;-68
2022/07/29 03:13:22;;;;;;;0.60;0.35;;;23.10;51.20;;;;;;6231645;28;20408;-67
2022/07/29 03:16:24;;;;;;;0.30;0.30;;;23.10;51.20;;;;;;6220342;28;20072;-68
2022/07/29 03:19:26;;;;;;;0.47;0.30;;;23.20;51.30;;;;;;6223954;28;20069;-68
2022/07/29 03:22:27;;;;;;;0.40;0.30;;;23.10;51.30;;;;;;6218516;28;20112;-67
2022/07/29 03:25:28;;;;;;;0.40;0.30;;;23.20;51.40;;;;;;6241724;28;20033;-67
2022/07/29 03:28:29;;;;;;;0.45;0.35;;;23.10;51.50;;;;;;6231551;28;20458;-68
2022/07/29 03:31:30;;;;;;;0.30;0.30;;;23.10;50.20;;;;;;6220793;28;20032;-68
2022/07/29 03:34:30;;;;;;;0.90;0.47;;;23.20;49.40;;;;;;6225122;28;20029;-67
2022/07/29 03:37:33;;;;;;;0.50;0.43;;;23.30;49.00;;;;;;6216725;28;20395;-67
2022/07/29 03:40:48;;;;;;;0.60;0.45;;;23.40;48.60;;;;;;6217076;28;20040;-68
2022/07/29 03:43:50;;;;;;;0.32;0.30;;;23.50;48.30;;;;;;6226318;28;20017;-67
2022/07/29 03:46:54;;;;;;;0.65;0.40;;;23.60;47.90;;;;;;6241139;28;20025;-67
2022/07/29 03:50:01;;;;;;;0.70;0.40;;;23.70;47.80;;;;;;6223472;28;20044;-67
2022/07/29 03:53:02;;;;;;;0.77;0.40;;;23.70;47.60;;;;;;6218418;28;20026;-67
2022/07/29 03:56:05;;;;;;;0.65;0.40;;;23.80;47.40;;;;;;6241045;28;20124;-68
2022/07/29 03:59:07;;;;;;;0.40;0.30;;;23.80;47.40;;;;;;6231243;28;20046;-68
2022/07/29 04:02:10;;;;;;;1.05;0.50;;;23.80;47.10;;;;;;6216636;28;20030;-67
2022/07/29 04:05:15;;;;;;;0.50;0.50;;;23.80;46.50;;;;;;6218128;28;20120;-68
2022/07/29 04:08:16;;;;;;;0.52;0.40;;;23.90;47.10;;;;;;6217473;28;20346;-67
2022/07/29 04:11:16;;;;;;;0.50;0.40;;;23.90;47.00;;;;;;6240917;28;20522;-67
2022/07/29 04:14:17;;;;;;;0.50;0.50;;;23.90;46.90;;;;;;6230923;28;20030;-68
2022/07/29 04:17:18;;;;;;;0.75;0.55;;;23.90;46.70;;;;;;6226312;28;20033;-66
2022/07/29 04:20:18;;;;;;;0.40;0.40;;;23.90;46.70;;;;;;6223855;28;20021;-68
2022/07/29 04:23:19;;;;;;;0.60;0.50;;;23.90;47.40;;;;;;6215984;28;20215;-68
2022/07/29 04:26:20;;;;;;;0.40;0.40;;;23.90;46.60;;;;;;6240263;28;20070;-68
2022/07/29 04:29:21;;;;;;;0.38;0.35;;;23.90;46.60;;;;;;6233102;28;20106;-67
2022/07/29 04:32:21;;;;;;;0.98;0.57;;;23.90;46.50;;;;;;6227366;28;20029;-68
2022/07/29 04:35:22;;;;;;;0.50;0.47;;;23.90;46.50;;;;;;6224984;28;20119;-68
2022/07/29 04:38:22;;;;;;;0.68;0.50;;;23.90;46.50;;;;;;6215973;28;20100;-68
2022/07/29 04:41:23;;;;;;;0.40;0.40;;;24.00;46.50;;;;;;6215745;28;20121;-68
2022/07/29 04:44:24;;;;;;;0.80;0.60;;;24.00;46.40;;;;;;6222967;28;20029;-67
2022/07/29 04:47:24;;;;;;;0.50;0.38;;;24.00;46.40;;;;;;6241004;28;20033;-67
2022/07/29 04:50:25;;;;;;;1.60;0.60;;;24.00;46.40;;;;;;6226899;28;20030;-67
2022/07/29 04:53:26;;;;;;;0.55;0.43;;;24.00;46.30;;;;;;6215584;28;20025;-68
2022/07/29 04:56:27;;;;;;;0.68;0.65;;;24.00;46.30;;;;;;6219779;28;20068;-67
2022/07/29 05:03:24;;;;;;;0.55;0.40;;;24.00;46.20;;;;;;6219509;28;20080;-68
2022/07/29 05:06:25;;;;;;;0.57;0.43;;;24.00;46.20;;;;;;6242574;28;20474;-67
2022/07/29 05:09:26;;;;;;;1.55;0.50;;;24.00;46.10;;;;;;6218585;28;20037;-67
2022/07/29 05:12:27;;;;;;;0.43;0.43;;;24.00;46.10;;;;;;6240572;28;20172;-67
2022/07/29 05:15:28;;;;;;;0.50;0.40;;;24.00;46.10;;;;;;6239829;28;20034;-68
2022/07/29 05:18:29;;;;;;;0.98;0.50;;;24.00;46.00;;;;;;6220728;28;20112;-67
2022/07/29 05:21:29;;;;;;;1.40;0.57;;;24.00;46.00;;;;;;6237469;28;20052;-68
2022/07/29 05:24:30;;;;;;;0.60;0.50;;;24.00;45.90;;;;;;6243072;28;20049;-68
2022/07/29 05:27:31;;;;;;;0.52;0.40;;;24.00;46.00;;;;;;6219919;28;20075;-67
2022/07/29 05:30:31;;;;;;;0.50;0.50;;;24.00;45.90;;;;;;6228593;28;20099;-67
2022/07/29 05:33:32;;;;;;;1.02;0.70;;;24.00;45.90;;;;;;6244746;28;20037;-68
2022/07/29 05:36:32;;;;;;;0.70;0.60;;;24.00;45.90;;;;;;6224146;28;20030;-68
2022/07/29 05:39:33;;;;;;;0.95;0.55;;;24.00;45.80;;;;;;6219653;28;20038;-68
2022/07/29 05:42:34;;;;;;;0.60;0.50;;;24.00;45.80;;;;;;6219578;28;20503;-68
2022/07/29 05:45:35;;;;;;;0.60;0.50;;;24.00;45.70;;;;;;6226818;28;20025;-68
2022/07/29 05:48:36;;;;;;;0.60;0.40;;;24.00;45.70;;;;;;6244190;28;20033;-68
2022/07/29 05:51:36;;;;;;;0.80;0.70;;;24.00;45.70;;;;;;6229065;28;20084;-68
2022/07/29 05:54:37;;;;;;;1.20;0.70;;;24.00;45.70;;;;;;6229871;28;20215;-67
2022/07/29 05:57:37;;;;;;;1.08;0.80;;;24.00;45.60;;;;;;6221064;28;20401;-67
2022/07/29 06:00:38;;;;;;;0.73;0.68;;;24.00;45.60;;;;;;6232676;28;20448;-67
2022/07/29 06:03:40;;;;;;;1.73;0.73;;;24.00;45.60;;;;;;6246483;28;20037;-68
2022/07/29 06:06:41;;;;;;;1.10;0.60;;;24.00;45.50;;;;;;6233650;28;20041;-68
2022/07/29 06:09:42;;;;;;;0.60;0.55;;;24.00;45.50;;;;;;6241426;28;20025;-67
2022/07/29 06:12:43;;;;;;;0.82;0.63;;;24.00;45.50;;;;;;6223974;28;20041;-68
2022/07/29 06:15:44;;;;;;;1.27;0.80;;;24.00;45.40;;;;;;6225965;28;20036;-67
2022/07/29 06:18:45;;;;;;;0.95;0.80;;;24.00;45.40;;;;;;6223912;28;20057;-67
2022/07/29 06:21:46;;;;;;;1.40;0.80;;;24.10;45.40;;;;;;6234000;28;20029;-68
2022/07/29 06:24:47;;;;;;;0.50;0.50;;;24.10;45.50;;;;;;6246658;28;20591;-68
2022/07/29 06:27:48;;;;;;;0.73;0.60;;;24.00;45.40;;;;;;6226947;28;20030;-68
2022/07/29 06:30:49;;;;;;;0.80;0.60;;;24.00;45.30;;;;;;6224796;28;20456;-68
2022/07/29 06:33:49;;;;;;;0.82;0.80;;;24.00;45.40;;;;;;6243484;28;20117;-67
2022/07/29 06:36:51;;;;;;;0.90;0.57;;;24.00;45.20;;;;;;6233789;28;20034;-67
2022/07/29 06:40:59;;;;;;;1.00;0.75;;;24.10;45.40;;;;;;6219325;28;20037;-67
2022/07/29 06:43:12;;;;;;;0.82;0.65;;;24.00;45.20;;;;;;6220730;28;20038;-67
2022/07/29 06:46:15;;;;;;;1.02;0.70;;;24.00;45.20;;;;;;6226217;28;20087;-68
2022/07/29 06:49:16;;;;;;;0.77;0.63;;;24.00;45.30;;;;;;6245954;28;20400;-68
2022/07/29 06:52:16;;;;;;;0.77;0.60;;;24.00;45.20;;;;;;6233824;28;20143;-68
2022/07/29 06:55:19;;;;;;;0.68;0.60;;;24.00;45.30;;;;;;6227837;28;20511;-68
2022/07/29 06:58:20;;;;;;;1.25;0.63;;;24.00;45.20;;;;;;6241360;28;20056;-68
2022/07/29 07:01:20;;;;;;;0.65;0.50;;;24.00;45.10;;;;;;6242696;28;20026;-68
2022/07/29 07:04:21;;;;;;;0.90;0.57;;;24.00;45.30;;;;;;6221544;28;20025;-67
2022/07/29 07:07:22;;;;;;;0.93;0.70;;;24.00;45.20;;;;;;6231452;28;20437;-67
2022/07/29 07:10:22;;;;;;;0.60;0.50;;;24.00;45.10;;;;;;6245809;28;20033;-68
2022/07/29 07:13:23;;;;;;;0.60;0.50;;;24.00;45.10;;;;;;6226129;28;20026;-68
2022/07/29 07:16:24;;;;;;;0.85;0.60;;;24.00;45.00;;;;;;6222247;28;20025;-68
2022/07/29 07:19:25;;;;;;;0.75;0.70;;;24.10;45.10;;;;;;6219765;28;20455;-68
2022/07/29 07:22:25;;;;;;;0.80;0.60;;;24.10;45.10;;;;;;6229233;28;20088;-68
2022/07/29 07:25:26;;;;;;;1.15;0.70;;;24.10;45.10;;;;;;6244834;28;20151;-68
2022/07/29 07:28:27;;;;;;;0.70;0.60;;;24.00;45.10;;;;;;6228174;28;20038;-68
2022/07/29 07:31:27;;;;;;;0.75;0.57;;;24.10;45.10;;;;;;6223402;28;20483;-67
2022/07/29 07:34:29;;;;;;;0.60;0.57;;;24.10;45.10;;;;;;6219675;28;20113;-67
2022/07/29 07:37:30;;;;;;;0.50;0.50;;;24.10;45.10;;;;;;6218593;28;20073;-70
2022/07/29 07:40:31;;;;;;;3.47;0.50;;;24.10;45.10;;;;;;6217996;28;20143;-68
2022/07/29 07:43:32;;;;;;;2.38;1.42;;;24.10;45.20;;;;;;6232247;28;20033;-68
2022/07/29 07:46:33;;;;;;;0.88;0.65;;;24.10;45.10;;;;;;6243207;28;20511;-68
2022/07/29 07:49:33;;;;;;;2.25;0.70;;;24.10;45.00;;;;;;6219799;28;20065;-68
2022/07/29 07:52:34;;;;;;;1.02;0.60;;;24.10;45.00;;;;;;6225736;28;20049;-68
2022/07/29 07:55:40;;;;;;;1.65;0.70;;;24.10;44.90;;;;;;6243496;28;20060;-68
2022/07/29 07:58:41;;;;;;;0.45;0.43;;;23.90;46.10;;;;;;6228366;28;20092;-68
2022/07/29 08:01:42;;;;;;;0.85;0.50;;;23.80;46.00;;;;;;6220007;28;20053;-68
2022/07/29 08:04:42;;;;;;;0.93;0.50;;;23.70;46.40;;;;;;6219861;28;20061;-68
2022/07/29 08:07:45;;;;;;;0.80;0.60;;;23.60;46.60;;;;;;6225220;28;20686;-68
2022/07/29 08:10:52;;;;;;;0.52;0.40;;;23.60;46.90;;;;;;6246464;28;20368;-68
2022/07/29 08:13:53;;;;;;;0.50;0.50;;;23.50;47.20;;;;;;6229543;28;20125;-68
2022/07/29 08:16:53;;;;;;;0.38;0.38;;;23.50;47.30;;;;;;6226631;28;20030;-68
2022/07/29 08:19:54;;;;;;;1.13;0.60;;;23.50;47.50;;;;;;6222776;28;20037;-68
2022/07/29 08:22:55;;;;;;;1.23;0.52;;;23.50;47.80;;;;;;6222719;28;20083;-68
2022/07/29 08:25:55;;;;;;;1.05;0.60;;;23.50;48.10;;;;;;6243694;28;20025;-68
2022/07/29 08:28:56;;;;;;;1.35;0.50;;;23.40;48.20;;;;;;6230997;28;20515;-68
2022/07/29 08:31:57;;;;;;;1.48;0.57;;;23.40;48.20;;;;;;6227255;28;20136;-68
2022/07/29 08:34:57;;;;;;;0.77;0.65;;;23.40;48.40;;;;;;6223463;28;20096;-68
2022/07/29 08:37:58;;;;;;;2.08;0.73;;;23.40;48.40;;;;;;6218418;28;20041;-67
2022/07/29 08:41:01;;;;;;;0.30;0.30;;;23.40;48.60;;;;;;6219650;28;20726;-68
2022/07/29 08:44:02;;;;;;;0.55;0.50;;;23.30;48.50;;;;;;6229628;28;20499;-68
2022/07/29 08:47:04;;;;;;;0.98;0.63;;;23.30;48.50;;;;;;6243475;28;20112;-67
2022/07/29 08:50:06;;;;;;;1.05;0.50;;;23.30;48.70;;;;;;6222602;28;20536;-68
2022/07/29 08:53:12;;;;;;;0.93;0.60;;;23.30;48.70;;;;;;6220633;28;20388;-68
2022/07/29 08:56:14;;;;;;;0.75;0.60;;;23.30;48.90;;;;;;6246719;28;20034;-67
2022/07/29 08:59:15;;;;;;;0.52;0.52;;;23.30;48.90;;;;;;6236411;28;20299;-67
2022/07/29 09:02:20;;;;;;;0.60;0.50;;;23.30;48.90;;;;;;6222690;28;20037;-68
2022/07/29 09:05:23;;;;;;;0.77;0.60;;;23.30;49.10;;;;;;6223164;28;20030;-68
2022/07/29 09:08:24;;;;;;;0.70;0.60;;;23.30;49.10;;;;;;6225975;28;20029;-67
2022/07/29 09:11:25;;;;;;;0.95;0.60;;;23.30;49.10;;;;;;6245812;28;20029;-68
2022/07/29 09:14:26;;;;;;;0.60;0.60;;;23.30;49.20;;;;;;6236369;28;20053;-68
2022/07/29 09:17:47;;;;;;;0.98;0.60;;;23.30;49.30;;;;;;6234389;28;20029;-68
2022/07/29 09:24:14;;;;;;;0.50;0.40;;;23.30;49.40;;;;;;6228922;28;20462;-67
2022/07/29 09:27:20;;;;;;;0.45;0.40;;;23.30;49.40;;;;;;6247340;28;20033;-68
2022/07/29 09:30:22;;;;;;;0.45;0.40;;;23.30;49.50;;;;;;6229722;28;20042;-67
2022/07/29 09:33:23;;;;;;;0.45;0.45;;;23.30;49.50;;;;;;6241891;28;20038;-68
2022/07/29 09:36:24;;;;;;;0.52;0.50;;;23.30;49.60;;;;;;6222250;28;20026;-68
2022/07/29 09:39:37;;;;;;;0.73;0.50;;;23.30;49.60;;;;;;6222140;28;20057;-68
2022/07/29 09:42:38;;;;;;;0.70;0.50;;;23.30;49.50;;;;;;6223281;28;20034;-68
2022/07/29 09:45:39;;;;;;;1.25;0.77;;;23.30;49.50;;;;;;6239627;28;20115;-68
2022/07/29 09:48:40;;;;;;;0.52;0.50;;;23.30;49.60;;;;;;6247251;28;20029;-68
2022/07/29 09:51:41;;;;;;;0.45;0.45;;;23.30;49.70;;;;;;6221851;28;20095;-68
2022/07/29 09:54:41;;;;;;;0.73;0.50;;;23.20;49.60;;;;;;6225263;28;20034;-68
2022/07/29 09:57:43;;;;;;;0.68;0.50;;;23.20;49.70;;;;;;6222818;28;20038;-68
2022/07/29 10:00:45;;;;;;;0.80;0.50;;;23.20;49.70;;;;;;6237703;28;20089;-68
2022/07/29 10:03:53;;;;;;;0.80;0.68;;;23.20;49.70;;;;;;6247562;28;20030;-68
2022/07/29 10:07:01;;;;;;;0.52;0.40;;;23.20;49.70;;;;;;6246642;28;20041;-68
2022/07/29 10:10:02;;;;;;;0.70;0.50;;;23.20;49.80;;;;;;6236523;28;20026;-68
2022/07/29 10:13:09;;;;;;;1.00;0.60;;;23.20;49.80;;;;;;6221253;28;20049;-68
2022/07/29 10:16:12;;;;;;;0.60;0.50;;;23.20;49.70;;;;;;6236122;28;20030;-67
2022/07/29 10:19:13;;;;;;;0.40;0.40;;;23.20;49.80;;;;;;6220290;28;20069;-68
2022/07/29 10:22:14;;;;;;;2.38;0.40;;;23.20;49.90;;;;;;6221569;28;20393;-68
2022/07/29 10:25:16;;;;;;;0.80;0.45;;;23.20;50.00;;;;;;6223760;28;20058;-68
2022/07/29 10:28:17;;;;;;;0.50;0.50;;;23.20;50.00;;;;;;6221065;28;20378;-68
2022/07/29 10:32:00;;;;;;;0.80;0.68;;;23.20;50.00;;;;;;6236686;28;20029;-68
2022/07/29 10:35:13;;;;;;;0.55;0.47;;;23.20;50.10;;;;;;6235265;28;20048;-68
2022/07/29 10:38:42;;;;;;;0.50;0.50;;;23.20;50.10;;;;;;6220423;28;20050;-66
2022/07/29 10:42:11;;;;;;;0.55;0.50;;;23.20;50.10;;;;;;6221632;28;20743;-68
2022/07/29 10:45:11;;;;;;;1.05;0.60;;;23.20;50.10;;;;;;6224960;28;20459;-68
2022/07/29 10:48:13;;;;;;;0.95;0.63;;;23.20;50.10;;;;;;6245837;28;20025;-68
2022/07/29 10:51:13;;;;;;;0.93;0.47;;;23.20;50.20;;;;;;6233586;28;20034;-68
2022/07/29 10:54:15;;;;;;;0.68;0.50;;;23.20;50.20;;;;;;6226632;28;20041;-68
2022/07/29 10:57:16;;;;;;;0.47;0.40;;;23.20;50.20;;;;;;6224940;28;20030;-68
2022/07/29 11:00:26;;;;;;;0.63;0.50;;;23.20;50.30;;;;;;6223998;28;20046;-67
2022/07/29 11:03:51;;;;;;;2.92;0.50;;;23.20;50.30;;;;;;6245674;28;20464;-68
2022/07/29 11:07:04;;;;;;;0.60;0.40;;;23.20;50.40;;;;;;6246086;28;20038;-68
2022/07/29 11:10:15;;;;;;;0.75;0.50;;;23.20;50.40;;;;;;6244422;28;20053;-68
2022/07/29 11:13:43;;;;;;;0.40;0.40;;;23.20;50.40;;;;;;6220510;28;20060;-68
2022/07/29 11:17:02;;;;;;;0.40;0.40;;;23.20;50.40;;;;;;6227911;28;20430;-68
2022/07/29 11:20:35;;;;;;;0.40;0.40;;;23.20;50.40;;;;;;6220269;28;20044;-68
2022/07/29 11:23:36;;;;;;;0.50;0.50;;;23.20;50.40;;;;;;6240453;28;20124;-68
2022/07/29 11:26:37;;;;;;;0.47;0.30;;;23.20;50.50;;;;;;6232914;28;20125;-68
2022/07/29 11:29:55;;;;;;;0.80;0.50;;;23.20;50.50;;;;;;6218273;28;20034;-68
2022/07/29 11:32:56;;;;;;;0.40;0.40;;;23.20;50.50;;;;;;6236497;28;20112;-68
2022/07/29 11:36:26;;;;;;;0.98;0.65;;;23.20;50.60;;;;;;6241577;28;20036;-69
2022/07/29 11:39:27;;;;;;;0.30;0.30;;;23.20;50.60;;;;;;6210855;28;20049;-68
2022/07/29 11:42:28;;;;;;;1.70;0.47;;;23.20;50.60;;;;;;6219202;28;20038;-67
2022/07/29 11:45:46;;;;;;;0.20;0.20;;;23.10;50.50;;;;;;6219099;28;20034;-69
2022/07/29 11:48:47;;;;;;;0.40;0.40;;;23.10;50.60;;;;;;6220619;28;20037;-67
2022/07/29 11:51:56;;;;;;;0.40;0.40;;;23.10;50.60;;;;;;6222563;28;20060;-67
2022/07/29 11:54:59;;;;;;;0.38;0.38;;;23.10;50.60;;;;;;6219126;28;20034;-68
2022/07/29 11:58:00;;;;;;;0.30;0.30;;;23.20;50.80;;;;;;6236220;28;20038;-68
2022/07/29 12:01:01;;;;;;;0.40;0.30;;;23.10;50.60;;;;;;6243304;28;20021;-68
2022/07/29 12:04:06;;;;;;;0.65;0.40;;;23.10;50.70;;;;;;6221624;28;20033;-67
2022/07/29 12:07:07;;;;;;;0.60;0.40;;;23.10;50.70;;;;;;6231570;28;20065;-68
2022/07/29 12:10:08;;;;;;;0.50;0.40;;;23.10;50.70;;;;;;6244368;28;20682;-67
2022/07/29 12:13:10;;;;;;;1.15;0.60;;;23.10;50.70;;;;;;6227674;28;20476;-68
2022/07/29 12:16:11;;;;;;;0.50;0.35;;;23.10;50.80;;;;;;6219756;28;20046;-68
2022/07/29 12:19:12;;;;;;;0.50;0.40;;;23.10;50.80;;;;;;6218457;28;20037;-68
2022/07/29 12:22:23;;;;;;;0.52;0.43;;;23.10;50.80;;;;;;6225707;28;20060;-68
2022/07/29 12:25:24;;;;;;;0.65;0.40;;;23.10;50.80;;;;;;6243330;28;20022;-68
2022/07/29 12:28:25;;;;;;;0.80;0.60;;;23.10;50.80;;;;;;6227022;28;20530;-68
2022/07/29 12:31:27;;;;;;;0.50;0.45;;;23.10;50.90;;;;;;6222567;28;20033;-67
2022/07/29 12:34:29;;;;;;;0.40;0.40;;;23.10;50.90;;;;;;6218345;28;20037;-68
2022/07/29 12:37:30;;;;;;;0.60;0.40;;;23.10;50.90;;;;;;6217865;28;20026;-68
2022/07/29 12:40:32;;;;;;;0.40;0.40;;;23.10;50.90;;;;;;6218221;28;20054;-67
2022/07/29 12:43:33;;;;;;;0.45;0.45;;;23.10;50.90;;;;;;6233906;28;20361;-67
2022/07/29 12:46:33;;;;;;;0.60;0.40;;;23.10;50.90;;;;;;6242925;28;20029;-67
2022/07/29 12:49:34;;;;;;;0.55;0.40;;;23.10;51.00;;;;;;6218937;28;20030;-68
2022/07/29 12:52:35;;;;;;;0.50;0.50;;;23.10;50.90;;;;;;6223469;28;20364;-67
2022/07/29 12:55:54;;;;;;;0.40;0.30;;;23.10;51.00;;;;;;6241943;28;20044;-67
2022/07/29 12:58:54;;;;;;;1.02;0.30;;;23.10;51.10;;;;;;6225724;28;20393;-68
2022/07/29 13:01:56;;;;;;;0.50;0.50;;;23.10;51.00;;;;;;6219227;28;20052;-68
2022/07/29 13:04:58;;;;;;;0.20;0.20;;;23.10;51.10;;;;;;6218711;28;20499;-67
2022/07/29 13:08:10;;;;;;;0.40;0.40;;;23.10;51.00;;;;;;6225898;28;20104;-68
2022/07/29 13:11:31;;;;;;;0.43;0.43;;;23.10;51.10;;;;;;6240350;28;20054;-68
2022/07/29 13:14:35;;;;;;;0.35;0.30;;;23.10;51.10;;;;;;6222009;28;20038;-68
2022/07/29 13:17:40;;;;;;;0.35;0.35;;;23.10;51.10;;;;;;6225591;28;20022;-68
2022/07/29 13:20:41;;;;;;;;;;;23.10;51.10;;;;;;6218745;28;20037;-68
2022/07/29 13:23:42;;;;;;;0.43;0.40;;;23.10;51.20;;;;;;6228723;28;19917;-68
2022/07/29 13:26:42;;;;;;;0.50;0.40;;;23.10;51.20;;;;;;6242006;28;20030;-68
2022/07/29 13:29:43;;;;;;;0.50;0.40;;;23.00;51.20;;;;;;6222691;28;20050;-68
2022/07/29 13:32:44;;;;;;;0.35;0.35;;;23.00;51.80;;;;;;6230123;28;20026;-68
2022/07/29 13:35:45;;;;;;;0.50;0.40;;;23.00;51.20;;;;;;6217998;28;20037;-68
2022/07/29 13:38:45;;;;;;;0.40;0.40;;;23.10;51.20;;;;;;6219040;28;20050;-67
2022/07/29 13:41:46;;;;;;;0.65;0.30;;;23.00;51.20;;;;;;6219573;28;20029;-68
2022/07/29 13:44:48;;;;;;;0.32;0.32;;;23.10;51.30;;;;;;6239612;28;20017;-68
2022/07/29 13:47:49;;;;;;;0.47;0.40;;;23.00;51.20;;;;;;6246617;28;20037;-68
2022/07/29 13:50:49;;;;;;;0.30;0.30;;;23.00;51.30;;;;;;6223232;28;20435;-68
2022/07/29 13:53:50;;;;;;;0.80;0.40;;;23.00;51.30;;;;;;6231848;28;20028;-67
2022/07/29 13:56:51;;;;;;;0.50;0.40;;;23.00;51.30;;;;;;6244211;28;20033;-68
2022/07/29 13:59:52;;;;;;;0.60;0.40;;;23.00;51.30;;;;;;6231108;28;20445;-68
2022/07/29 14:02:52;;;;;;;0.40;0.40;;;23.00;51.30;;;;;;6222932;28;20215;-68
2022/07/29 14:05:53;;;;;;;0.68;0.50;;;23.00;52.00;;;;;;6222660;28;20033;-68
2022/07/29 14:08:54;;;;;;;0.30;0.22;;;23.00;51.30;;;;;;6229431;28;20024;-68
2022/07/29 14:11:54;;;;;;;0.25;0.25;;;23.00;51.30;;;;;;6245041;28;20427;-68
2022/07/29 14:14:55;;;;;;;0.63;0.40;;;23.00;51.40;;;;;;6230829;28;20018;-68
2022/07/29 14:17:56;;;;;;;0.70;0.50;;;23.00;51.40;;;;;;6236530;28;20033;-68
2022/07/29 14:20:57;;;;;;;0.30;0.30;;;23.00;51.40;;;;;;6223188;28;20550;-68
2022/07/29 14:23:57;;;;;;;0.40;0.40;;;23.00;51.40;;;;;;6225335;28;20053;-68
2022/07/29 14:26:58;;;;;;;0.50;0.47;;;23.00;51.40;;;;;;6245259;28;20112;-68
2022/07/29 14:29:59;;;;;;;0.40;0.30;;;23.00;51.40;;;;;;6231808;28;20054;-68
2022/07/29 14:32:59;;;;;;;0.40;0.40;;;23.00;51.40;;;;;;6235502;28;20048;-69
2022/07/29 14:36:00;;;;;;;0.30;0.30;;;23.00;51.40;;;;;;6224463;28;20042;-68
2022/07/29 14:39:01;;;;;;;0.30;0.30;;;23.00;51.50;;;;;;6220208;28;20489;-68
2022/07/29 14:42:01;;;;;;;0.38;0.30;;;23.00;51.50;;;;;;6220379;28;20041;-68
2022/07/29 14:45:03;;;;;;;0.30;0.30;;;23.00;51.50;;;;;;6232095;28;20391;-68
2022/07/29 14:48:04;;;;;;;0.20;0.20;;;23.00;51.50;;;;;;6244563;28;20026;-68
2022/07/29 14:51:05;;;;;;;0.50;0.43;;;23.00;51.50;;;;;;6224726;28;20041;-67
2022/07/29 14:54:05;;;;;;;0.70;0.47;;;23.00;51.60;;;;;;6223652;28;20021;-68
2022/07/29 14:57:06;;;;;;;0.30;0.30;;;23.00;51.60;;;;;;6221415;28;20030;-68
2022/07/29 15:00:07;;;;;;;0.20;0.20;;;23.00;51.60;;;;;;6231797;28;20086;-68
2022/07/29 15:03:11;;;;;;;0.75;0.50;;;23.00;51.60;;;;;;6224750;28;20032;-68
2022/07/29 15:06:11;;;;;;;0.30;0.30;;;23.00;51.60;;;;;;6239044;28;20475;-68
2022/07/29 15:09:12;;;;;;;0.28;0.28;;;23.00;51.60;;;;;;6242939;28;20292;-67
2022/07/29 15:12:13;;;;;;;0.50;0.40;;;23.00;51.60;;;;;;6220283;28;20095;-68
2022/07/29 15:15:13;;;;;;;0.40;0.40;;;23.00;51.70;;;;;;6228950;28;20484;-68
2022/07/29 15:18:14;;;;;;;0.38;0.35;;;23.00;51.70;;;;;;6225495;28;20088;-68
2022/07/29 15:21:15;;;;;;;0.30;0.30;;;23.00;51.70;;;;;;6236395;28;20615;-68
2022/07/29 15:24:19;;;;;;;0.40;0.40;;;23.00;51.70;;;;;;6243987;28;20048;-68
2022/07/29 15:27:19;;;;;;;0.30;0.30;;;23.00;51.80;;;;;;6219673;28;20029;-67
2022/07/29 15:30:20;;;;;;;0.43;0.40;;;23.00;51.80;;;;;;6227314;28;20022;-67
2022/07/29 15:33:21;;;;;;;0.45;0.40;;;23.00;51.80;;;;;;6244258;28;20022;-68
2022/07/29 15:36:21;;;;;;;0.55;0.40;;;23.00;51.80;;;;;;6229395;28;20101;-68
2022/07/29 15:39:22;;;;;;;0.40;0.40;;;23.00;51.80;;;;;;6222965;28;20086;-67
2022/07/29 15:42:23;;;;;;;0.38;0.38;;;23.00;51.80;;;;;;6219142;28;20433;-68
2022/07/29 15:45:23;;;;;;;0.95;0.55;;;23.00;51.90;;;;;;6224253;28;20044;-68
2022/07/29 15:48:24;;;;;;;0.30;0.30;;;23.00;51.90;;;;;;6241963;28;20017;-67
2022/07/29 15:51:25;;;;;;;0.40;0.40;;;23.00;51.90;;;;;;6230203;28;20021;-68
2022/07/29 15:54:26;;;;;;;0.30;0.30;;;23.00;51.90;;;;;;6227533;28;20511;-67
2022/07/29 15:57:27;;;;;;;0.32;0.30;;;23.00;51.90;;;;;;6222558;28;20075;-67
2022/07/29 16:00:28;;;;;;;0.40;0.40;;;23.00;51.90;;;;;;6224553;28;20029;-68
2022/07/29 16:03:28;;;;;;;0.55;0.40;;;23.00;51.90;;;;;;6244038;28;20022;-67